Time;durP1;ratioP1;P1;durP2;ratioP2;P2;SDS_P1;SDS_P2;PMS_P1;PMS_P2;Temp;Humidity;BMP_temperature;BMP_pressure;BME280_temperature;BME280_humidity;BME280_pressure;Samples;Min_cycle;Max_cycle;Signal;HPM_P1;HPM_P2
2022/10/25 09:54:00;;;;;;;;;;;20.60;89.10;;;;;;5098886;28;19977;-73
2022/10/25 09:56:26;;;;;;;;;;;20.60;88.90;;;;;;5093082;28;19928;-70
2022/10/25 09:58:53;;;;;;;;;;;20.60;88.90;;;;;;5067039;28;19915;-73
2022/10/25 10:01:24;;;;;;;;;;;20.60;89.00;;;;;;5091727;28;19912;-73
2022/10/25 10:03:51;;;;;;;;;;;20.60;88.60;;;;;;5092379;28;19916;-74
2022/10/25 10:06:20;;;;;;;;;;;20.60;88.70;;;;;;5104885;28;19973;-73
2022/10/25 10:08:48;;;;;;;;;;;20.60;88.90;;;;;;5110738;28;20412;-70
2022/10/25 10:11:15;;;;;;;;;;;20.50;89.00;;;;;;5091996;28;19924;-71
2022/10/25 10:13:48;;;;;;;;;;;20.50;89.00;;;;;;5091452;28;19907;-75
2022/10/25 10:16:36;;;;;;;;;;;20.50;88.90;;;;;;5110016;28;19916;-75
2022/10/25 10:19:12;;;;;;;;;;;20.50;89.00;;;;;;5109961;28;20499;-74
2022/10/25 10:21:42;;;;;;;;;;;20.50;89.10;;;;;;5109622;28;19912;-76
2022/10/25 10:24:15;;;;;;;;;;;20.40;89.00;;;;;;5091364;28;19927;-74
2022/10/25 10:27:00;;;;;;;;;;;20.50;89.20;;;;;;5091498;28;19920;-72
2022/10/25 10:29:26;;;;;;;;;;;20.50;89.30;;;;;;5091879;28;20254;-72
2022/10/25 10:31:54;;;;;;;;;;;20.40;89.40;;;;;;5109703;28;19923;-72
2022/10/25 10:34:56;;;;;;;;;;;20.50;89.40;;;;;;5110258;28;19965;-73
2022/10/25 10:37:23;;;;;;;;;;;20.40;89.50;;;;;;4987361;28;19921;-73
2022/10/25 10:39:53;;;;;;;;;;;20.40;89.70;;;;;;5067923;28;19912;-73
2022/10/25 10:42:23;;;;;;;;;;;20.40;89.80;;;;;;5109843;28;20277;-74
2022/10/25 10:45:02;;;;;;;;;;;20.50;89.60;;;;;;5110254;28;19916;-73
2022/10/25 10:47:31;;;;;;;;;;;20.50;89.60;;;;;;5094863;28;19923;-71
2022/10/25 10:49:57;;;;;;;;;;;20.40;89.50;;;;;;5113474;28;19912;-72
2022/10/25 10:52:31;;;;;;;;;;;20.40;89.40;;;;;;5096052;28;19962;-74
2022/10/25 10:54:58;;;;;;;;;;;20.50;89.30;;;;;;5078420;28;19936;-70
2022/10/25 10:57:31;;;;;;;;;;;20.50;89.10;;;;;;5112202;28;20006;-72
2022/10/25 10:59:58;;;;;;;;;;;20.50;89.20;;;;;;5104607;28;19920;-70
2022/10/25 11:02:42;;;;;;;;;;;20.50;89.00;;;;;;5115081;27;19907;-70
2022/10/25 11:05:18;;;;;;;;;;;20.50;89.00;;;;;;5094894;28;19919;-71
2022/10/25 11:07:45;;;;;;;;;;;20.50;88.90;;;;;;5112764;27;19916;-70
2022/10/25 11:10:15;;;;;;;;;;;20.60;88.80;;;;;;5095620;27;19911;-69
2022/10/25 11:12:42;;;;;;;;;;;20.50;88.80;;;;;;5105201;27;20336;-70
2022/10/25 11:15:12;;;;;;;;;;;20.50;88.80;;;;;;5097074;28;19911;-71
2022/10/25 11:17:51;;;;;;;;;;;20.60;88.80;;;;;;5094274;28;19934;-71
2022/10/25 11:20:27;;;;;;;;;;;20.50;88.90;;;;;;5090144;28;19947;-71
2022/10/25 11:22:57;;;;;;;;;;;20.60;89.20;;;;;;5094588;28;19922;-72
2022/10/25 11:25:43;;;;;;;;;;;20.50;89.50;;;;;;5114360;27;19957;-74
2022/10/25 11:28:19;;;;;;;;;;;20.50;89.70;;;;;;5113596;27;19915;-73
2022/10/25 11:31:01;;;;;;;;;;;20.50;89.80;;;;;;5110014;28;19963;-76
2022/10/25 11:33:33;;;;;;;;;;;20.50;90.10;;;;;;5098721;28;19920;-74
2022/10/25 11:36:18;;;;;;;;;;;20.50;90.10;;;;;;5112568;28;19911;-76
2022/10/25 11:38:51;;;;;;;;;;;20.50;90.00;;;;;;5112255;28;19918;-76
2022/10/25 11:41:35;;;;;;;;;;;20.50;90.10;;;;;;5112768;28;19908;-73
2022/10/25 11:44:07;;;;;;;;;;;20.50;90.00;;;;;;5112645;28;19965;-74
2022/10/25 11:46:48;;;;;;;;;;;20.50;90.00;;;;;;5094074;28;19968;-76
2022/10/25 11:49:15;;;;;;;;;;;20.50;90.20;;;;;;5112199;28;19974;-76
2022/10/25 11:51:45;;;;;;;;;;;20.50;90.60;;;;;;5112216;28;19915;-75
2022/10/25 11:54:20;;;;;;;;;;;20.40;91.00;;;;;;5112699;28;19989;-76
2022/10/25 11:56:53;;;;;;;;;;;20.40;91.60;;;;;;5113191;28;19915;-75
2022/10/25 11:59:19;;;;;;;;;;;20.30;92.40;;;;;;5115050;28;20428;-75
2022/10/25 12:01:46;;;;;;;;;;;20.20;92.70;;;;;;5115156;28;19914;-75
2022/10/25 12:04:27;;;;;;;;;;;20.10;92.90;;;;;;5114857;28;19908;-76
2022/10/25 12:07:26;;;;;;;;;;;20.10;93.10;;;;;;5114804;28;19966;-76
2022/10/25 12:10:11;;;;;;;;;;;20.00;93.50;;;;;;5048580;28;19994;-76
2022/10/25 12:12:42;;;;;;;;;;;19.90;93.50;;;;;;5098069;28;19926;-76
2022/10/25 12:15:11;;;;;;;;;;;19.80;93.60;;;;;;5088146;28;19944;-76
2022/10/25 12:17:38;;;;;;;;;;;19.80;93.30;;;;;;5066379;28;19939;-76
2022/10/25 12:20:05;;;;;;;;;;;19.70;93.30;;;;;;5107122;28;20385;-76
2022/10/25 12:22:39;;;;;;;;;;;19.70;93.10;;;;;;5093435;28;19912;-76
2022/10/25 12:25:24;;;;;;;;;;;19.60;93.00;;;;;;5096649;28;19965;-76
2022/10/25 12:27:53;;;;;;;;;;;19.60;93.20;;;;;;5096128;28;19947;-76
2022/10/25 12:30:20;;;;;;;;;;;19.50;93.40;;;;;;5096150;28;19908;-76
2022/10/25 12:32:57;;;;;;;;;;;19.50;93.30;;;;;;5096249;28;20258;-76
2022/10/25 12:35:28;;;;;;;;;;;19.50;93.50;;;;;;5096618;28;19908;-76
2022/10/25 12:37:56;;;;;;;;;;;19.50;93.70;;;;;;5114497;28;19915;-76
2022/10/25 12:40:22;;;;;;;;;;;19.60;93.60;;;;;;5096012;28;20384;-76
2022/10/25 12:42:54;;;;;;;;;;;19.50;93.60;;;;;;5096154;28;20022;-76
2022/10/25 12:45:23;;;;;;;;;;;19.50;93.60;;;;;;5095775;28;19908;-76
2022/10/25 12:47:56;;;;;;;;;;;19.60;93.40;;;;;;5113003;28;20409;-76
2022/10/25 12:50:22;;;;;;;;;;;19.60;93.70;;;;;;5095948;28;19994;-76
2022/10/25 12:53:03;;;;;;;;;;;19.60;93.70;;;;;;5114163;28;19919;-76
2022/10/25 12:55:36;;;;;;;;;;;19.60;94.00;;;;;;5113790;28;19946;-76
2022/10/25 12:58:06;;;;;;;;;;;19.70;93.80;;;;;;5100660;28;20002;-75
2022/10/25 13:00:35;;;;;;;;;;;19.70;94.00;;;;;;5095594;28;19908;-75
2022/10/25 13:03:20;;;;;;;;;;;19.70;94.00;;;;;;5096079;28;20644;-75
2022/10/25 13:05:58;;;;;;;;;;;19.70;94.20;;;;;;5113621;28;19979;-75
2022/10/25 13:08:25;;;;;;;;;;;19.70;94.10;;;;;;5105599;28;20011;-75
2022/10/25 13:11:02;;;;;;;;;;;19.70;94.40;;;;;;5113562;28;20377;-75
2022/10/25 13:13:32;;;;;;;;;;;19.70;94.30;;;;;;5095834;28;19912;-75
2022/10/25 13:16:00;;;;;;;;;;;19.70;94.30;;;;;;5094852;28;19911;-75
2022/10/25 13:18:32;;;;;;;;;;;19.70;94.40;;;;;;5113926;28;19934;-75
2022/10/25 13:20:59;;;;;;;;;;;19.70;94.40;;;;;;5112814;28;19912;-75
2022/10/25 13:23:41;;;;;;;;;;;19.70;94.30;;;;;;5095787;28;19908;-75
2022/10/25 13:26:11;;;;;;;;;;;19.60;94.30;;;;;;5112673;28;19920;-76
2022/10/25 13:28:45;;;;;;;;;;;19.70;94.30;;;;;;5095200;28;19908;-75
2022/10/25 13:31:38;;;;;;;;;;;19.60;94.10;;;;;;5112214;28;19916;-75
2022/10/25 13:34:14;;;;;;;;;;;19.60;94.10;;;;;;5098364;28;19922;-75
2022/10/25 13:36:46;;;;;;;;;;;19.60;94.20;;;;;;5113157;28;19947;-75
2022/10/25 13:39:22;;;;;;;;;;;19.60;94.20;;;;;;5109673;28;20258;-75
2022/10/25 13:41:49;;;;;;;;;;;19.50;94.10;;;;;;5112762;28;20265;-75
2022/10/25 13:44:25;;;;;;;;;;;19.50;94.20;;;;;;5094922;28;20001;-76
2022/10/25 13:46:52;;;;;;;;;;;19.50;94.10;;;;;;5080879;28;19923;-75
2022/10/25 13:49:22;;;;;;;;;;;19.50;94.20;;;;;;5094649;28;19964;-75
2022/10/25 13:51:49;;;;;;;;;;;19.50;94.10;;;;;;5112798;28;19927;-75
2022/10/25 13:54:15;;;;;;;;;;;19.50;94.00;;;;;;5094498;28;19912;-75
2022/10/25 13:56:51;;;;;;;;;;;19.50;94.10;;;;;;5112819;28;19922;-75
2022/10/25 13:59:37;;;;;;;;;;;19.50;93.90;;;;;;5113024;28;19908;-75
2022/10/25 14:02:07;;;;;;;;;;;19.40;93.70;;;;;;5112841;28;19919;-75
2022/10/25 14:04:35;;;;;;;;;;;19.50;93.70;;;;;;5113196;28;19919;-75
2022/10/25 14:07:20;;;;;;;;;;;19.40;93.80;;;;;;5097418;28;19938;-75
2022/10/25 14:09:46;;;;;;;;;;;19.40;93.60;;;;;;5108856;28;19999;-75
2022/10/25 14:12:14;;;;;;;;;;;19.40;93.70;;;;;;5110755;28;19924;-75
2022/10/25 14:14:46;;;;;;;;;;;19.40;93.60;;;;;;5112017;28;19943;-75
2022/10/25 14:17:31;;;;;;;;;;;19.40;93.50;;;;;;5111986;28;19972;-75
2022/10/25 14:19:58;;;;;;;;;;;19.40;93.80;;;;;;5111642;28;19908;-75
2022/10/25 14:22:25;;;;;;;;;;;19.30;93.20;;;;;;5094357;28;19961;-75
2022/10/25 14:24:52;;;;;;;;;;;19.40;93.20;;;;;;5112629;28;19907;-75
2022/10/25 14:27:29;;;;;;;;;;;19.30;93.20;;;;;;5111805;28;19922;-74
2022/10/25 14:30:11;;;;;;;;;;;19.30;92.90;;;;;;5090688;28;20263;-75
2022/10/25 14:32:38;;;;;;;;;;;19.30;92.70;;;;;;5109820;28;19924;-75
2022/10/25 14:35:05;;;;;;;;;;;19.30;92.60;;;;;;5100297;28;20384;-75
2022/10/25 14:37:32;;;;;;;;;;;19.20;92.40;;;;;;5112629;28;19914;-75
2022/10/25 14:39:58;;;;;;;;;;;19.20;92.50;;;;;;5096404;28;19919;-74
2022/10/25 14:42:25;;;;;;;;;;;19.20;92.00;;;;;;5111702;28;20494;-75
2022/10/25 14:44:51;;;;;;;;;;;19.20;92.10;;;;;;5112183;28;19933;-74
2022/10/25 14:47:28;;;;;;;;;;;19.20;92.00;;;;;;5094275;28;19995;-75
2022/10/25 14:49:55;;;;;;;;;;;19.20;92.10;;;;;;5112378;28;19974;-75
2022/10/25 14:52:21;;;;;;;;;;;19.20;92.00;;;;;;5094364;28;20392;-74
2022/10/25 14:54:52;;;;;;;;;;;19.10;91.50;;;;;;5112107;28;19947;-74
2022/10/25 14:57:20;;;;;;;;;;;19.10;91.50;;;;;;5094215;28;19912;-74
2022/10/25 14:59:47;;;;;;;;;;;19.10;91.70;;;;;;5112609;28;20429;-75
2022/10/25 15:02:22;;;;;;;;;;;19.10;91.50;;;;;;5087200;28;19920;-74
2022/10/25 15:04:49;;;;;;;;;;;19.00;91.60;;;;;;5064300;28;20383;-74
2022/10/25 15:07:23;;;;;;;;;;;19.00;91.20;;;;;;5091812;28;21031;-74
2022/10/25 15:09:54;;;;;;;;;;;19.00;90.90;;;;;;5073372;28;19909;-74
2022/10/25 15:12:21;;;;;;;;;;;19.00;90.50;;;;;;5091360;28;19923;-74
2022/10/25 15:14:48;;;;;;;;;;;19.00;90.60;;;;;;5091783;28;19947;-75
2022/10/25 15:17:22;;;;;;;;;;;19.00;90.20;;;;;;5091739;28;19912;-74
2022/10/25 15:19:59;;;;;;;;;;;19.00;90.20;;;;;;5089839;28;20482;-74
2022/10/25 15:22:51;;;;;;;;;;;19.00;90.10;;;;;;5090572;28;19923;-75
2022/10/25 15:25:21;;;;;;;;;;;19.00;89.90;;;;;;5087621;28;20274;-75
2022/10/25 15:27:48;;;;;;;;;;;19.10;88.40;;;;;;5090997;28;19912;-74
2022/10/25 15:30:34;;;;;;;;;;;19.10;89.10;;;;;;5081119;28;19971;-74
2022/10/25 15:33:01;;;;;;;;;;;19.10;89.00;;;;;;5095263;28;19920;-75
2022/10/25 15:35:28;;;;;;;;;;;19.10;88.30;;;;;;5094442;28;19962;-74
2022/10/25 15:37:55;;;;;;;;;;;19.20;88.40;;;;;;5094887;28;20440;-75
2022/10/25 15:40:21;;;;;;;;;;;19.20;88.30;;;;;;5095041;28;19908;-74
2022/10/25 15:42:48;;;;;;;;;;;19.20;87.80;;;;;;5094272;28;19915;-74
2022/10/25 15:45:15;;;;;;;;;;;19.20;88.00;;;;;;5095279;28;20267;-75
2022/10/25 15:47:41;;;;;;;;;;;19.20;88.40;;;;;;5094900;28;20354;-75
2022/10/25 15:50:15;;;;;;;;;;;19.20;88.20;;;;;;5094616;28;19916;-75
2022/10/25 15:52:42;;;;;;;;;;;19.20;87.30;;;;;;5094963;28;19916;-74
2022/10/25 15:55:31;;;;;;;;;;;19.20;88.00;;;;;;5094684;28;19955;-75
2022/10/25 15:57:59;;;;;;;;;;;19.20;88.20;;;;;;5094721;28;19914;-75
2022/10/25 16:00:26;;;;;;;;;;;19.20;87.70;;;;;;5094871;28;19918;-74
2022/10/25 16:02:52;;;;;;;;;;;19.20;87.20;;;;;;5094649;28;19982;-75
2022/10/25 16:05:23;;;;;;;;;;;19.20;87.00;;;;;;5101330;28;19959;-75
2022/10/25 16:07:50;;;;;;;;;;;19.20;88.30;;;;;;5094087;28;19935;-74
2022/10/25 16:10:17;;;;;;;;;;;19.20;87.80;;;;;;5094481;28;19908;-74
2022/10/25 16:12:44;;;;;;;;;;;19.20;87.70;;;;;;5094475;28;19916;-75
2022/10/25 16:15:13;;;;;;;;;;;19.20;87.00;;;;;;5099788;28;20400;-74
2022/10/25 16:17:40;;;;;;;;;;;19.10;86.20;;;;;;5092565;28;19912;-75
2022/10/25 16:20:25;;;;;;;;;;;19.20;87.50;;;;;;5086748;28;19912;-75
2022/10/25 16:22:52;;;;;;;;;;;19.20;86.80;;;;;;5093303;28;20007;-75
2022/10/25 16:25:19;;;;;;;;;;;19.20;86.60;;;;;;5094424;28;20293;-75
2022/10/25 16:27:46;;;;;;;;;;;19.20;86.20;;;;;;5089511;28;20368;-75
2022/10/25 16:30:16;;;;;;;;;;;19.10;86.80;;;;;;5092916;28;19908;-75
2022/10/25 16:32:43;;;;;;;;;;;19.20;86.50;;;;;;5087903;28;19920;-74
2022/10/25 16:35:10;;;;;;;;;;;19.20;85.80;;;;;;5092769;28;19908;-74
2022/10/25 16:37:36;;;;;;;;;;;19.20;86.10;;;;;;5093404;28;19936;-75
2022/10/25 16:40:03;;;;;;;;;;;19.20;86.10;;;;;;5092399;28;19999;-75
2022/10/25 16:42:34;;;;;;;;;;;19.20;86.30;;;;;;5092231;28;19915;-75
2022/10/25 16:45:00;;;;;;;;;;;19.20;86.30;;;;;;5092586;28;19967;-75
2022/10/25 16:47:27;;;;;;;;;;;19.20;84.70;;;;;;5093168;28;19912;-75
2022/10/25 16:49:54;;;;;;;;;;;19.20;85.10;;;;;;5093507;28;19908;-75
2022/10/25 16:52:20;;;;;;;;;;;19.20;85.30;;;;;;5091958;28;20016;-75
2022/10/25 16:54:47;;;;;;;;;;;19.20;85.20;;;;;;5093435;28;19908;-75
2022/10/25 16:57:14;;;;;;;;;;;19.30;85.90;;;;;;5092501;28;19912;-75
2022/10/25 16:59:40;;;;;;;;;;;19.30;85.80;;;;;;5089764;28;19912;-75
2022/10/25 17:02:16;;;;;;;;;;;19.30;83.90;;;;;;5088980;28;19920;-75
2022/10/25 17:04:43;;;;;;;;;;;19.30;85.50;;;;;;5093467;28;19908;-75
2022/10/25 17:07:09;;;;;;;;;;;19.20;83.90;;;;;;5093503;28;19912;-75
2022/10/25 17:09:36;;;;;;;;;;;19.20;85.20;;;;;;5091155;28;20015;-75
2022/10/25 17:12:03;;;;;;;;;;;19.20;84.60;;;;;;5092599;28;19920;-75
2022/10/25 17:14:29;;;;;;;;;;;19.30;84.10;;;;;;5110323;28;19908;-75
2022/10/25 17:16:56;;;;;;;;;;;19.30;84.80;;;;;;5093166;28;19919;-75
2022/10/25 17:19:22;;;;;;;;;;;19.30;84.00;;;;;;5104964;28;19908;-75
2022/10/25 17:21:50;;;;;;;;;;;19.20;83.50;;;;;;5107580;28;19931;-75
2022/10/25 17:24:17;;;;;;;;;;;19.20;83.20;;;;;;5110545;28;19911;-75
2022/10/25 17:26:44;;;;;;;;;;;19.30;83.10;;;;;;5112423;28;19943;-75
2022/10/25 17:29:10;;;;;;;;;;;19.30;84.20;;;;;;5113462;28;19958;-75
2022/10/25 17:31:37;;;;;;;;;;;19.30;84.00;;;;;;5078881;28;20316;-75
2022/10/25 17:34:03;;;;;;;;;;;19.20;83.10;;;;;;5106256;28;20285;-75
2022/10/25 17:36:31;;;;;;;;;;;19.20;82.90;;;;;;5092159;28;19991;-75
2022/10/25 17:38:58;;;;;;;;;;;19.20;83.20;;;;;;5093971;28;20286;-75
2022/10/25 17:41:24;;;;;;;;;;;19.30;82.50;;;;;;5105606;28;19908;-75
2022/10/25 17:43:51;;;;;;;;;;;19.30;83.50;;;;;;5101406;28;19911;-75
2022/10/25 17:46:18;;;;;;;;;;;19.30;82.20;;;;;;5112891;28;20048;-75
2022/10/25 17:48:45;;;;;;;;;;;19.30;82.50;;;;;;5113244;28;19947;-72
2022/10/25 17:51:12;;;;;;;;;;;19.30;81.80;;;;;;5093733;28;19920;-73
2022/10/25 17:53:39;;;;;;;;;;;19.30;84.00;;;;;;5096876;28;19912;-82
2022/10/25 17:56:15;;;;;;;;;;;19.30;83.80;;;;;;5090075;28;19934;-74
2022/10/25 17:58:42;;;;;;;;;;;19.30;83.30;;;;;;5079801;28;20278;-74
2022/10/25 18:01:09;;;;;;;;;;;19.20;83.20;;;;;;5088536;28;19916;-73
2022/10/25 18:03:36;;;;;;;;;;;19.20;83.90;;;;;;5092998;28;19954;-74
2022/10/25 18:06:07;;;;;;;;;;;19.10;83.90;;;;;;5092084;28;20007;-74
2022/10/25 18:08:35;;;;;;;;;;;19.10;84.80;;;;;;5088548;28;19908;-74
2022/10/25 18:11:12;;;;;;;;;;;19.00;84.40;;;;;;5093036;28;19916;-74
2022/10/25 18:13:40;;;;;;;;;;;19.00;84.30;;;;;;5096012;28;20274;-74
2022/10/25 18:16:07;;;;;;;;;;;19.00;83.60;;;;;;5095006;28;19912;-74
2022/10/25 18:18:34;;;;;;;;;;;19.00;83.80;;;;;;5094814;28;19908;-74
2022/10/25 18:21:03;;;;;;;;;;;19.00;84.00;;;;;;5105318;28;19908;-74
2022/10/25 18:23:30;;;;;;;;;;;19.00;83.90;;;;;;5090801;28;19913;-73
2022/10/25 18:25:57;;;;;;;;;;;19.00;85.20;;;;;;5110451;28;20369;-73
2022/10/25 18:28:23;;;;;;;;;;;19.00;84.90;;;;;;5100145;28;19933;-74
2022/10/25 18:30:50;;;;;;;;;;;18.90;83.20;;;;;;5098713;28;20006;-74
2022/10/25 18:33:17;;;;;;;;;;;19.00;84.60;;;;;;5090814;28;19912;-73
2022/10/25 18:35:44;;;;;;;;;;;19.00;85.10;;;;;;5107977;28;20006;-74
2022/10/25 18:38:12;;;;;;;;;;;18.90;83.00;;;;;;5112181;28;19953;-73
2022/10/25 18:40:38;;;;;;;;;;;19.00;84.70;;;;;;5112380;28;19922;-73
2022/10/25 18:43:05;;;;;;;;;;;18.90;84.30;;;;;;5112667;28;20378;-73
2022/10/25 18:45:34;;;;;;;;;;;18.90;84.50;;;;;;5112752;28;20052;-74
2022/10/25 18:48:01;;;;;;;;;;;18.80;84.70;;;;;;5112372;28;20273;-73
2022/10/25 18:50:27;;;;;;;;;;;18.90;84.90;;;;;;5112342;28;19915;-73
2022/10/25 18:52:54;;;;;;;;;;;18.80;84.90;;;;;;5112326;28;19966;-73
2022/10/25 18:55:25;;;;;;;;;;;18.80;84.80;;;;;;5112380;28;19951;-73
2022/10/25 18:57:53;;;;;;;;;;;18.90;85.70;;;;;;5112407;28;19908;-73
2022/10/25 19:00:25;;;;;;;;;;;18.80;85.50;;;;;;5094106;28;19915;-73
2022/10/25 19:02:52;;;;;;;;;;;18.80;84.80;;;;;;5112039;28;19927;-73
2022/10/25 19:05:19;;;;;;;;;;;18.80;85.30;;;;;;5113278;28;19934;-73
2022/10/25 19:07:46;;;;;;;;;;;18.80;84.50;;;;;;5116571;28;19908;-73
2022/10/25 19:10:12;;;;;;;;;;;18.80;85.20;;;;;;5116267;28;20277;-73
2022/10/25 19:12:39;;;;;;;;;;;18.80;84.10;;;;;;5116091;28;19920;-73
2022/10/25 19:15:06;;;;;;;;;;;18.80;86.20;;;;;;5116121;28;19961;-73
2022/10/25 19:17:32;;;;;;;;;;;18.80;84.70;;;;;;5115993;28;19907;-74
2022/10/25 19:19:59;;;;;;;;;;;18.80;84.80;;;;;;5116160;28;19915;-73
2022/10/25 19:22:26;;;;;;;;;;;18.80;85.60;;;;;;5115594;28;20349;-73
2022/10/25 19:24:52;;;;;;;;;;;18.90;85.40;;;;;;5114709;28;19911;-73
2022/10/25 19:27:19;;;;;;;;;;;18.90;84.20;;;;;;5116186;28;19934;-73
2022/10/25 19:29:46;;;;;;;;;;;18.90;84.90;;;;;;5115629;28;19908;-73
2022/10/25 19:32:12;;;;;;;;;;;18.90;84.70;;;;;;5115614;28;20426;-73
2022/10/25 19:34:39;;;;;;;;;;;19.00;83.90;;;;;;5115770;28;19908;-73
2022/10/25 19:37:07;;;;;;;;;;;19.00;83.60;;;;;;5115203;28;19915;-73
2022/10/25 19:39:36;;;;;;;;;;;19.10;83.20;;;;;;5115519;28;19908;-73
2022/10/25 19:42:03;;;;;;;;;;;19.10;83.60;;;;;;5115647;28;19992;-73
2022/10/25 19:44:29;;;;;;;;;;;19.10;83.90;;;;;;5115573;28;19955;-73
2022/10/25 19:46:56;;;;;;;;;;;19.20;83.50;;;;;;5115625;28;19907;-73
2022/10/25 19:49:23;;;;;;;;;;;19.20;84.40;;;;;;5115008;28;19922;-73
2022/10/25 19:51:49;;;;;;;;;;;19.20;84.50;;;;;;5115066;27;19916;-73
2022/10/25 19:54:16;;;;;;;;;;;19.20;84.20;;;;;;5115060;28;19914;-73
2022/10/25 19:56:42;;;;;;;;;;;19.30;83.70;;;;;;5115254;28;20331;-73
2022/10/25 19:59:09;;;;;;;;;;;19.30;83.80;;;;;;5115063;28;19918;-74
2022/10/25 20:01:36;;;;;;;;;;;19.30;83.20;;;;;;5114571;28;19912;-74
2022/10/25 20:04:04;;;;;;;;;;;19.40;83.10;;;;;;5115116;28;19912;-74
2022/10/25 20:06:32;;;;;;;;;;;19.40;83.20;;;;;;5114947;28;19915;-74
2022/10/25 20:08:59;;;;;;;;;;;19.50;83.10;;;;;;5115219;28;19919;-73
2022/10/25 20:11:26;;;;;;;;;;;19.50;83.20;;;;;;5114902;28;19912;-73
2022/10/25 20:13:53;;;;;;;;;;;19.50;82.90;;;;;;5115127;28;19951;-73
2022/10/25 20:16:20;;;;;;;;;;;19.60;82.90;;;;;;5113344;28;20008;-73
2022/10/25 20:18:46;;;;;;;;;;;19.60;83.00;;;;;;5112852;28;19915;-73
2022/10/25 20:21:17;;;;;;;;;;;19.70;82.60;;;;;;5114701;28;20010;-71
2022/10/25 20:23:48;;;;;;;;;;;19.70;82.40;;;;;;5114506;28;19914;-73
2022/10/25 20:26:20;;;;;;;;;;;19.70;82.20;;;;;;5114757;28;19912;-72
2022/10/25 20:28:47;;;;;;;;;;;19.70;81.60;;;;;;5113383;28;19933;-72
2022/10/25 20:31:14;;;;;;;;;;;19.80;81.70;;;;;;5114181;28;19916;-72
2022/10/25 20:33:41;;;;;;;;;;;19.80;81.00;;;;;;5113179;28;19961;-72
2022/10/25 20:36:08;;;;;;;;;;;19.80;81.30;;;;;;5112845;28;19914;-72
2022/10/25 20:38:34;;;;;;;;;;;19.90;81.30;;;;;;5114223;28;20396;-72
2022/10/25 20:41:04;;;;;;;;;;;20.00;80.80;;;;;;5114195;28;19912;-73
2022/10/25 20:43:31;;;;;;;;;;;20.00;81.20;;;;;;5114460;28;20022;-73
2022/10/25 20:45:57;;;;;;;;;;;20.10;81.10;;;;;;5114184;28;19912;-73
2022/10/25 20:48:24;;;;;;;;;;;20.10;81.20;;;;;;5114472;27;19908;-73
2022/10/25 20:50:52;;;;;;;;;;;20.10;81.00;;;;;;5114343;28;19915;-73
2022/10/25 20:53:19;;;;;;;;;;;20.20;81.40;;;;;;5086239;28;20381;-73
2022/10/25 20:55:47;;;;;;;;;;;20.20;81.10;;;;;;5112647;28;19952;-73
2022/10/25 20:58:14;;;;;;;;;;;20.30;80.80;;;;;;5095669;28;19961;-73
2022/10/25 21:00:40;;;;;;;;;;;20.30;80.70;;;;;;5114122;28;19915;-73
2022/10/25 21:03:07;;;;;;;;;;;20.30;80.60;;;;;;5112554;28;19926;-74
2022/10/25 21:05:34;;;;;;;;;;;20.40;79.90;;;;;;5112686;28;20365;-73
2022/10/25 21:08:00;;;;;;;;;;;20.50;80.10;;;;;;5112490;28;20266;-73
2022/10/25 21:10:27;;;;;;;;;;;20.50;79.60;;;;;;5112689;28;20006;-73
2022/10/25 21:12:53;;;;;;;;;;;20.60;79.40;;;;;;5113584;28;19920;-73
2022/10/25 21:15:20;;;;;;;;;;;20.70;79.40;;;;;;5113416;28;19930;-74
2022/10/25 21:17:49;;;;;;;;;;;20.70;79.30;;;;;;5113781;28;19908;-73
2022/10/25 21:20:16;;;;;;;;;;;20.80;79.20;;;;;;5113274;28;19908;-74
2022/10/25 21:22:45;;;;;;;;;;;20.80;78.90;;;;;;5112335;28;19908;-73
2022/10/25 21:25:11;;;;;;;;;;;20.80;78.90;;;;;;5112210;28;19908;-73
2022/10/25 21:27:38;;;;;;;;;;;20.90;78.50;;;;;;5113038;28;19958;-73
2022/10/25 21:30:05;;;;;;;;;;;21.00;77.90;;;;;;5113150;28;19908;-73
2022/10/25 21:32:32;;;;;;;;;;;21.00;77.50;;;;;;5113239;28;20377;-74
2022/10/25 21:34:59;;;;;;;;;;;21.10;77.50;;;;;;5098224;28;19923;-73
2022/10/25 21:37:26;;;;;;;;;;;21.10;76.90;;;;;;5091555;28;19974;-73
2022/10/25 21:39:52;;;;;;;;;;;21.20;76.20;;;;;;5092230;28;19913;-76
2022/10/25 21:42:19;;;;;;;;;;;21.30;75.90;;;;;;5092418;28;20199;-72
2022/10/25 21:44:46;;;;;;;;;;;21.30;75.40;;;;;;5090793;28;19912;-72
2022/10/25 21:47:12;;;;;;;;;;;21.50;75.60;;;;;;5109613;27;20434;-72
2022/10/25 21:49:39;;;;;;;;;;;21.60;75.40;;;;;;5091806;28;19971;-73
2022/10/25 21:52:05;;;;;;;;;;;21.80;74.80;;;;;;5092548;28;20271;-73
2022/10/25 21:54:32;;;;;;;;;;;22.10;74.10;;;;;;5092666;28;19918;-73
2022/10/25 21:56:59;;;;;;;;;;;22.30;73.20;;;;;;5093947;28;19959;-72
2022/10/25 21:59:25;;;;;;;;;;;22.50;71.90;;;;;;5101093;28;19916;-73
2022/10/25 22:01:52;;;;;;;;;;;22.60;71.10;;;;;;5094288;28;20012;-73
2022/10/25 22:04:19;;;;;;;;;;;22.80;70.70;;;;;;5101977;28;20061;-73
2022/10/25 22:06:45;;;;;;;;;;;22.90;70.40;;;;;;5092522;28;20495;-72
